createdAt,value
2023-04-28T00:01:25.653Z,7.0
2023-04-28T00:06:31.860Z,7.0
2023-04-28T00:11:38.062Z,8.0
2023-04-28T00:16:44.437Z,8.0
2023-04-28T00:21:50.492Z,8.0
2023-04-28T00:26:56.695Z,7.0
2023-04-28T00:32:02.943Z,8.0
2023-04-28T00:37:09.110Z,8.0
2023-04-28T00:42:15.323Z,8.0
2023-04-28T00:47:21.519Z,8.0
2023-04-28T00:52:27.731Z,8.0
2023-04-28T00:57:33.982Z,8.0
2023-04-28T01:02:40.335Z,8.0
2023-04-28T01:07:46.363Z,8.0
2023-04-28T01:12:52.584Z,8.0
2023-04-28T01:17:58.799Z,8.0
2023-04-28T01:23:04.013Z,8.0
2023-04-28T01:28:10.219Z,8.0
2023-04-28T01:33:16.421Z,8.0
2023-04-28T01:38:21.747Z,8.0
2023-04-28T01:43:27.867Z,9.0
2023-04-28T01:48:33.103Z,9.0
2023-04-28T01:53:39.312Z,9.0
2023-04-28T01:58:45.528Z,9.0
2023-04-28T02:03:51.820Z,10.0
2023-04-28T02:08:57.938Z,10.0
2023-04-28T02:14:04.137Z,10.5
2023-04-28T02:19:10.392Z,11.0
2023-04-28T02:24:16.866Z,10.0
2023-04-28T02:29:22.762Z,10.0
2023-04-28T02:34:28.989Z,10.0
2023-04-28T02:39:35.176Z,11.0
2023-04-28T02:44:41.401Z,10.0
2023-04-28T02:49:47.590Z,10.0
2023-04-28T02:54:53.805Z,11.0
2023-04-28T03:00:00.014Z,10.5
2023-04-28T03:05:06.244Z,10.0
2023-04-28T03:10:12.438Z,10.0
2023-04-28T03:15:18.643Z,11.0
2023-04-28T03:20:24.843Z,11.0
2023-04-28T03:25:31.046Z,11.0
2023-04-28T03:30:37.259Z,12.0
2023-04-28T03:35:42.503Z,12.0
2023-04-28T03:40:48.721Z,13.0
2023-04-28T03:45:53.945Z,12.0
2023-04-28T03:51:00.166Z,13.0
2023-04-28T03:56:06.366Z,13.0
2023-04-28T04:01:12.560Z,13.0
2023-04-28T04:06:18.769Z,13.0
2023-04-28T04:11:24.991Z,14.0
2023-04-28T04:16:31.279Z,15.0
2023-04-28T04:21:37.414Z,15.0
2023-04-28T04:26:43.600Z,15.0
2023-04-28T04:31:49.803Z,16.0
2023-04-28T04:36:56.017Z,15.5
2023-04-28T04:42:10.479Z,15.5
2023-04-28T04:47:08.432Z,16.0
2023-04-28T04:52:14.637Z,16.5
2023-04-28T04:57:20.856Z,16.0
2023-04-28T05:02:27.102Z,16.0
2023-04-28T05:07:33.280Z,17.0
2023-04-28T05:12:39.489Z,17.0
2023-04-28T05:17:45.750Z,17.0
2023-04-28T05:22:51.892Z,17.0
2023-04-28T05:27:58.113Z,17.0
2023-04-28T05:33:03.371Z,17.0
2023-04-28T05:38:09.570Z,17.0
2023-04-28T05:43:14.778Z,17.0
2023-04-28T05:48:20.989Z,16.0
2023-04-28T05:53:27.191Z,16.5
2023-04-28T05:58:33.398Z,16.0
2023-04-28T06:03:39.760Z,16.0
2023-04-28T06:08:46.213Z,17.0
2023-04-28T06:13:52.026Z,15.5
2023-04-28T06:18:58.281Z,15.0
2023-04-28T06:24:04.445Z,15.0
2023-04-28T06:29:10.658Z,15.0
2023-04-28T06:34:17.058Z,15.0
2023-04-28T06:39:23.076Z,15.0
2023-04-28T06:44:29.300Z,15.0
2023-04-28T06:49:35.497Z,15.0
2023-04-28T06:54:41.836Z,15.0
2023-04-28T06:59:47.914Z,14.0
2023-04-28T07:04:54.120Z,15.0
2023-04-28T07:10:00.326Z,15.0
2023-04-28T07:15:06.593Z,13.0
2023-04-28T07:20:12.744Z,14.0
2023-04-28T07:25:18.974Z,14.0
2023-04-28T07:30:27.733Z,14.0
2023-04-28T07:35:30.439Z,14.0
2023-04-28T07:40:36.626Z,13.5
2023-04-28T07:45:42.882Z,13.0
2023-04-28T07:50:49.040Z,13.5
2023-04-28T07:55:55.392Z,13.0
2023-04-28T08:01:01.470Z,13.0
2023-04-28T08:06:07.871Z,13.0
2023-04-28T08:11:13.892Z,12.0
2023-04-28T08:16:20.167Z,12.5
2023-04-28T08:21:26.309Z,13.0
2023-04-28T08:26:32.529Z,14.0
2023-04-28T08:31:38.816Z,14.0
2023-04-28T08:36:45.029Z,15.0
2023-04-28T08:41:51.164Z,16.0
2023-04-28T08:46:57.460Z,17.0
2023-04-28T08:52:03.591Z,17.0
2023-04-28T08:57:09.874Z,16.0
2023-04-28T09:02:16.129Z,16.0
2023-04-28T09:07:22.244Z,17.0
2023-04-28T09:12:28.420Z,16.0
2023-04-28T09:17:33.698Z,15.0
2023-04-28T09:22:39.879Z,15.0
2023-04-28T09:27:46.072Z,15.0
2023-04-28T09:32:52.354Z,14.0
2023-04-28T09:37:58.521Z,14.0
2023-04-28T09:43:15.087Z,12.0
2023-04-28T09:48:11.024Z,12.0
2023-04-28T09:53:17.122Z,12.0
2023-04-28T09:58:23.323Z,12.0
2023-04-28T10:03:30.248Z,12.0
2023-04-28T10:08:35.751Z,13.0
2023-04-28T10:13:40.980Z,13.0
2023-04-28T10:18:47.182Z,14.0
2023-04-28T10:23:53.422Z,14.0
2023-04-28T10:28:59.598Z,15.0
2023-04-28T10:34:05.803Z,14.0
2023-04-28T10:39:12.027Z,14.0
2023-04-28T10:44:18.232Z,15.0
2023-04-28T10:49:24.432Z,16.0
2023-04-28T10:54:30.651Z,16.0
2023-04-28T10:59:36.858Z,15.0
2023-04-28T11:04:42.255Z,15.0
2023-04-28T11:09:48.295Z,15.0
2023-04-28T11:14:53.523Z,18.0
2023-04-28T11:19:59.752Z,21.0
2023-04-28T11:25:04.967Z,27.0
2023-04-28T11:30:11.195Z,29.0
2023-04-28T11:35:17.387Z,29.0
2023-04-28T11:40:23.668Z,31.0
2023-04-28T11:45:29.841Z,31.0
2023-04-28T11:50:36.016Z,30.0
2023-04-28T11:55:42.216Z,30.0
2023-04-28T12:00:48.433Z,29.0
2023-04-28T12:05:54.752Z,28.0
2023-04-28T12:11:00.855Z,28.0
2023-04-28T12:16:07.122Z,28.0
2023-04-28T12:21:13.268Z,26.0
2023-04-28T12:26:19.478Z,25.0
2023-04-28T12:31:25.696Z,25.0
2023-04-28T12:36:31.889Z,27.0
2023-04-28T12:41:38.099Z,27.0
2023-04-28T12:46:44.413Z,24.0
2023-04-28T12:51:50.518Z,22.0
2023-04-28T12:56:56.730Z,21.0
2023-04-28T13:02:03.058Z,21.0
2023-04-28T13:07:09.148Z,21.0
2023-04-28T13:12:14.377Z,21.0
2023-04-28T13:17:20.619Z,21.0
2023-04-28T13:22:25.816Z,8.0
2023-04-28T13:27:32.030Z,5.0
2023-04-28T13:32:38.279Z,5.0
2023-04-28T13:37:44.446Z,6.0
2023-04-28T13:42:50.706Z,8.0
2023-04-28T13:47:56.927Z,9.0
2023-04-28T13:53:03.068Z,9.0
2023-04-28T13:58:09.267Z,8.0
2023-04-28T14:03:15.640Z,8.0
2023-04-28T14:08:21.692Z,7.0
2023-04-28T14:13:27.900Z,7.0
2023-04-28T14:18:34.106Z,7.0
2023-04-28T14:23:40.311Z,6.0
2023-04-28T14:28:46.520Z,6.0
2023-04-28T14:33:52.737Z,5.0
2023-04-28T14:38:58.936Z,6.0
2023-04-28T14:44:05.147Z,6.0
2023-04-28T14:49:11.374Z,6.0
2023-04-28T14:54:17.568Z,6.0
2023-04-28T14:59:23.777Z,5.0
2023-04-28T15:04:30.205Z,4.0
2023-04-28T15:09:35.224Z,3.0
2023-04-28T15:14:41.424Z,3.0
2023-04-28T15:19:46.663Z,4.0
2023-04-28T15:24:52.884Z,5.0
2023-04-28T15:29:59.081Z,4.0
2023-04-28T15:35:05.315Z,4.5
2023-04-28T15:40:11.516Z,5.0
2023-04-28T15:45:17.696Z,5.0
2023-04-28T15:50:23.900Z,5.0
2023-04-28T15:55:30.148Z,6.0
2023-04-28T16:00:36.317Z,6.0
2023-04-28T16:05:42.529Z,7.0
2023-04-28T16:10:48.752Z,7.5
2023-04-28T16:15:54.955Z,8.0
2023-04-28T16:21:01.168Z,8.0
2023-04-28T16:26:07.397Z,8.0
2023-04-28T16:31:13.581Z,10.0
2023-04-28T16:36:19.789Z,9.0
2023-04-28T16:41:26.004Z,8.0
2023-04-28T16:46:32.238Z,8.0
2023-04-28T16:51:38.419Z,8.0
2023-04-28T16:56:44.615Z,8.0
2023-04-28T17:01:51.023Z,8.0
2023-04-28T17:06:56.062Z,8.0
2023-04-28T17:12:02.269Z,7.0
2023-04-28T17:17:08.473Z,8.0
2023-04-28T17:22:14.682Z,8.0
2023-04-28T17:27:20.905Z,9.0
2023-04-28T17:32:27.136Z,8.5
2023-04-28T17:37:33.325Z,9.0
2023-04-28T17:42:39.512Z,9.0
2023-04-28T17:47:45.749Z,9.0
2023-04-28T17:52:51.933Z,10.0
2023-04-28T18:03:04.425Z,11.0
2023-04-28T18:08:10.583Z,10.0
2023-04-28T18:13:16.786Z,10.0
2023-04-28T18:18:22.974Z,11.0
2023-04-28T18:23:29.181Z,10.0
2023-04-28T18:28:35.386Z,11.0
2023-04-28T18:33:41.591Z,10.0
2023-04-28T18:38:47.804Z,8.0
2023-04-28T18:43:54.017Z,7.0
2023-04-28T18:49:00.227Z,7.0
2023-04-28T18:54:06.435Z,6.0
2023-04-28T18:59:11.659Z,5.0
2023-04-28T19:04:17.964Z,5.0
2023-04-28T19:09:23.113Z,5.0
2023-04-28T19:14:29.322Z,5.0
2023-04-28T19:19:35.589Z,5.0
2023-04-28T19:24:40.758Z,5.0
2023-04-28T19:29:46.982Z,6.0
2023-04-28T19:34:53.185Z,7.0
2023-04-28T19:39:59.390Z,9.0
2023-04-28T19:45:05.623Z,9.0
2023-04-28T19:50:11.817Z,10.0
2023-04-28T19:55:18.363Z,11.0
2023-04-28T20:00:24.262Z,12.0
2023-04-28T20:05:30.477Z,10.0
2023-04-28T20:10:36.679Z,10.0
2023-04-28T20:15:42.918Z,10.0
2023-04-28T20:20:49.101Z,11.0
2023-04-28T20:25:55.320Z,12.0
2023-04-28T20:31:01.562Z,12.0
2023-04-28T20:36:07.764Z,14.0
2023-04-28T20:41:13.966Z,15.0
2023-04-28T20:46:20.262Z,18.0
2023-04-28T20:51:26.464Z,18.0
2023-04-28T20:56:32.665Z,19.0
2023-04-28T21:01:38.822Z,20.0
2023-04-28T21:06:45.135Z,20.0
2023-04-28T21:11:50.274Z,20.0
2023-04-28T21:16:56.661Z,21.0
2023-04-28T21:22:01.738Z,21.0
2023-04-28T21:27:07.952Z,22.0
2023-04-28T21:32:14.201Z,22.0
2023-04-28T21:37:20.415Z,23.0
2023-04-28T21:42:26.619Z,23.0
2023-04-28T21:48:48.945Z,24.0
2023-04-28T21:52:39.023Z,23.5
2023-04-28T21:57:45.241Z,25.0
2023-04-28T22:02:51.666Z,26.0
2023-04-28T22:07:57.651Z,26.0
2023-04-28T22:13:03.872Z,28.0
2023-04-28T22:18:10.102Z,28.0
2023-04-28T22:23:16.293Z,30.0
2023-04-28T22:28:22.501Z,31.0
2023-04-28T22:33:28.699Z,34.0
2023-04-28T22:38:34.927Z,36.0
2023-04-28T22:43:41.124Z,39.0
2023-04-28T22:48:47.342Z,39.0
2023-04-28T22:58:59.749Z,40.0
2023-04-28T23:04:06.127Z,42.0
2023-04-28T23:09:12.479Z,42.0
2023-04-28T23:14:17.382Z,44.0
2023-04-28T23:19:23.597Z,39.5
2023-04-28T23:24:29.805Z,39.0
2023-04-28T23:29:36.048Z,36.0
2023-04-28T23:34:42.247Z,36.0
2023-04-28T23:39:48.526Z,34.5
2023-04-28T23:44:54.646Z,35.0
2023-04-28T23:50:00.953Z,32.0
2023-04-28T23:55:07.088Z,31.0
